sensor_id;sensor_type;location;lat;lon;timestamp;temperature;humidity
4451;DHT22;2238;50.180;9.230;2022-11-15T00:00:44;12.90;99.90
4451;DHT22;2238;50.180;9.230;2022-11-15T00:03:45;12.90;99.90
4451;DHT22;2238;50.180;9.230;2022-11-15T00:06:46;12.90;99.90
4451;DHT22;2238;50.180;9.230;2022-11-15T00:09:46;13.00;99.90
4451;DHT22;2238;50.180;9.230;2022-11-15T00:12:47;13.00;99.90
4451;DHT22;2238;50.180;9.230;2022-11-15T00:15:48;13.10;99.90
4451;DHT22;2238;50.180;9.230;2022-11-15T00:18:48;13.00;99.90
4451;DHT22;2238;50.180;9.230;2022-11-15T00:21:49;12.90;99.90
4451;DHT22;2238;50.180;9.230;2022-11-15T00:24:49;12.80;99.90
4451;DHT22;2238;50.180;9.230;2022-11-15T00:27:50;12.70;99.90
4451;DHT22;2238;50.180;9.230;2022-11-15T00:30:52;14.50;99.90
4451;DHT22;2238;50.180;9.230;2022-11-15T00:33:52;12.50;99.90
4451;DHT22;2238;50.180;9.230;2022-11-15T00:36:53;12.50;99.90
4451;DHT22;2238;50.180;9.230;2022-11-15T00:39:53;12.40;99.90
4451;DHT22;2238;50.180;9.230;2022-11-15T00:42:54;12.40;99.90
4451;DHT22;2238;50.180;9.230;2022-11-15T00:45:55;13.50;99.90
4451;DHT22;2238;50.180;9.230;2022-11-15T00:48:56;12.40;99.90
4451;DHT22;2238;50.180;9.230;2022-11-15T00:51:56;12.30;99.90
4451;DHT22;2238;50.180;9.230;2022-11-15T00:54:57;12.40;99.90
4451;DHT22;2238;50.180;9.230;2022-11-15T00:57:57;12.40;99.90
4451;DHT22;2238;50.180;9.230;2022-11-15T01:01:10;12.30;99.90
4451;DHT22;2238;50.180;9.230;2022-11-15T01:04:11;12.20;99.90
4451;DHT22;2238;50.180;9.230;2022-11-15T01:07:12;12.40;99.90
4451;DHT22;2238;50.180;9.230;2022-11-15T01:10:12;12.40;99.90
4451;DHT22;2238;50.180;9.230;2022-11-15T01:13:13;12.40;99.90
4451;DHT22;2238;50.180;9.230;2022-11-15T01:16:16;12.60;99.90
4451;DHT22;2238;50.180;9.230;2022-11-15T01:19:20;12.70;99.90
4451;DHT22;2238;50.180;9.230;2022-11-15T01:22:20;12.60;99.90
4451;DHT22;2238;50.180;9.230;2022-11-15T01:25:21;14.00;99.90
4451;DHT22;2238;50.180;9.230;2022-11-15T01:28:21;12.70;99.90
4451;DHT22;2238;50.180;9.230;2022-11-15T01:31:23;12.80;99.90
4451;DHT22;2238;50.180;9.230;2022-11-15T01:34:23;12.70;99.90
4451;DHT22;2238;50.180;9.230;2022-11-15T01:37:24;12.80;99.90
4451;DHT22;2238;50.180;9.230;2022-11-15T01:40:24;14.00;99.90
4451;DHT22;2238;50.180;9.230;2022-11-15T01:43:28;12.70;99.90
4451;DHT22;2238;50.180;9.230;2022-11-15T01:46:29;14.00;99.90
4451;DHT22;2238;50.180;9.230;2022-11-15T01:49:33;12.80;99.90
4451;DHT22;2238;50.180;9.230;2022-11-15T01:52:36;12.70;99.90
4451;DHT22;2238;50.180;9.230;2022-11-15T01:55:38;12.70;99.90
4451;DHT22;2238;50.180;9.230;2022-11-15T01:58:40;12.70;99.90
4451;DHT22;2238;50.180;9.230;2022-11-15T02:01:41;12.80;99.90
4451;DHT22;2238;50.180;9.230;2022-11-15T02:04:44;12.70;99.90
4451;DHT22;2238;50.180;9.230;2022-11-15T02:07:46;12.60;99.90
4451;DHT22;2238;50.180;9.230;2022-11-15T02:10:47;12.60;99.90
4451;DHT22;2238;50.180;9.230;2022-11-15T02:13:47;12.60;99.90
4451;DHT22;2238;50.180;9.230;2022-11-15T02:27:08;12.70;99.90
4451;DHT22;2238;50.180;9.230;2022-11-15T02:37:07;12.60;99.90
4451;DHT22;2238;50.180;9.230;2022-11-15T02:43:19;12.60;99.90
4451;DHT22;2238;50.180;9.230;2022-11-15T02:46:43;12.70;99.90
4451;DHT22;2238;50.180;9.230;2022-11-15T02:50:10;14.80;99.90
4451;DHT22;2238;50.180;9.230;2022-11-15T02:53:14;12.80;99.90
4451;DHT22;2238;50.180;9.230;2022-11-15T02:56:15;12.70;99.90
4451;DHT22;2238;50.180;9.230;2022-11-15T02:59:45;12.70;99.90
4451;DHT22;2238;50.180;9.230;2022-11-15T03:03:02;12.60;99.90
4451;DHT22;2238;50.180;9.230;2022-11-15T03:09:35;12.50;99.90
4451;DHT22;2238;50.180;9.230;2022-11-15T03:12:49;12.60;99.90
4451;DHT22;2238;50.180;9.230;2022-11-15T03:16:09;12.60;99.90
4451;DHT22;2238;50.180;9.230;2022-11-15T03:23:08;12.50;99.90
4451;DHT22;2238;50.180;9.230;2022-11-15T03:26:12;12.50;99.90
4451;DHT22;2238;50.180;9.230;2022-11-15T03:29:17;12.50;99.90
4451;DHT22;2238;50.180;9.230;2022-11-15T03:32:31;12.40;99.90
4451;DHT22;2238;50.180;9.230;2022-11-15T03:35:38;12.50;99.90
4451;DHT22;2238;50.180;9.230;2022-11-15T03:38:41;12.50;99.90
4451;DHT22;2238;50.180;9.230;2022-11-15T03:45:49;12.50;99.90
4451;DHT22;2238;50.180;9.230;2022-11-15T03:48:54;12.60;99.90
4451;DHT22;2238;50.180;9.230;2022-11-15T03:51:58;14.10;99.90
4451;DHT22;2238;50.180;9.230;2022-11-15T03:55:01;13.70;99.90
4451;DHT22;2238;50.180;9.230;2022-11-15T03:58:02;12.60;99.90
4451;DHT22;2238;50.180;9.230;2022-11-15T04:01:02;14.70;99.90
4451;DHT22;2238;50.180;9.230;2022-11-15T04:04:03;12.70;99.90
4451;DHT22;2238;50.180;9.230;2022-11-15T04:07:04;12.70;99.90
4451;DHT22;2238;50.180;9.230;2022-11-15T04:10:05;12.60;99.90
4451;DHT22;2238;50.180;9.230;2022-11-15T04:13:05;12.50;99.90
4451;DHT22;2238;50.180;9.230;2022-11-15T04:16:06;12.40;99.90
4451;DHT22;2238;50.180;9.230;2022-11-15T04:19:07;12.30;99.90
4451;DHT22;2238;50.180;9.230;2022-11-15T04:22:26;12.40;99.90
4451;DHT22;2238;50.180;9.230;2022-11-15T04:25:46;12.30;99.90
4451;DHT22;2238;50.180;9.230;2022-11-15T04:28:49;12.30;99.90
4451;DHT22;2238;50.180;9.230;2022-11-15T04:32:08;12.30;99.90
4451;DHT22;2238;50.180;9.230;2022-11-15T04:35:09;12.20;99.90
4451;DHT22;2238;50.180;9.230;2022-11-15T04:38:10;12.30;99.90
4451;DHT22;2238;50.180;9.230;2022-11-15T04:41:11;12.10;99.90
4451;DHT22;2238;50.180;9.230;2022-11-15T04:44:11;12.20;99.90
4451;DHT22;2238;50.180;9.230;2022-11-15T04:47:12;14.10;99.90
4451;DHT22;2238;50.180;9.230;2022-11-15T04:50:13;12.20;99.90
4451;DHT22;2238;50.180;9.230;2022-11-15T04:53:14;12.20;99.90
4451;DHT22;2238;50.180;9.230;2022-11-15T04:56:15;12.00;99.90
4451;DHT22;2238;50.180;9.230;2022-11-15T04:59:15;11.80;99.90
4451;DHT22;2238;50.180;9.230;2022-11-15T05:02:16;11.80;99.90
4451;DHT22;2238;50.180;9.230;2022-11-15T05:05:17;11.80;99.90
4451;DHT22;2238;50.180;9.230;2022-11-15T05:08:17;11.80;99.90
4451;DHT22;2238;50.180;9.230;2022-11-15T05:11:18;11.80;99.90
4451;DHT22;2238;50.180;9.230;2022-11-15T05:14:18;11.80;99.90
4451;DHT22;2238;50.180;9.230;2022-11-15T05:17:19;11.80;99.90
4451;DHT22;2238;50.180;9.230;2022-11-15T05:20:20;11.90;99.90
4451;DHT22;2238;50.180;9.230;2022-11-15T05:23:20;11.70;99.90
4451;DHT22;2238;50.180;9.230;2022-11-15T05:26:21;11.70;99.90
4451;DHT22;2238;50.180;9.230;2022-11-15T05:29:21;11.60;99.90
4451;DHT22;2238;50.180;9.230;2022-11-15T05:32:22;11.50;99.90
4451;DHT22;2238;50.180;9.230;2022-11-15T05:35:34;11.60;99.90
4451;DHT22;2238;50.180;9.230;2022-11-15T05:38:35;11.50;99.90
4451;DHT22;2238;50.180;9.230;2022-11-15T05:41:41;11.50;99.90
4451;DHT22;2238;50.180;9.230;2022-11-15T05:44:47;11.50;99.90
4451;DHT22;2238;50.180;9.230;2022-11-15T05:47:49;11.40;99.90
4451;DHT22;2238;50.180;9.230;2022-11-15T05:50:50;11.40;99.90
4451;DHT22;2238;50.180;9.230;2022-11-15T05:53:52;11.50;99.90
4451;DHT22;2238;50.180;9.230;2022-11-15T05:56:53;11.30;99.90
4451;DHT22;2238;50.180;9.230;2022-11-15T05:59:55;11.00;99.90
4451;DHT22;2238;50.180;9.230;2022-11-15T06:02:55;10.90;99.90
4451;DHT22;2238;50.180;9.230;2022-11-15T06:05:56;10.80;99.90
4451;DHT22;2238;50.180;9.230;2022-11-15T06:08:57;10.80;99.90
4451;DHT22;2238;50.180;9.230;2022-11-15T06:11:58;10.80;99.90
4451;DHT22;2238;50.180;9.230;2022-11-15T06:14:58;10.90;99.90
4451;DHT22;2238;50.180;9.230;2022-11-15T06:17:59;10.90;99.90
4451;DHT22;2238;50.180;9.230;2022-11-15T06:21:00;10.80;99.90
4451;DHT22;2238;50.180;9.230;2022-11-15T06:24:01;10.70;99.90
4451;DHT22;2238;50.180;9.230;2022-11-15T06:27:01;10.50;99.90
4451;DHT22;2238;50.180;9.230;2022-11-15T06:30:02;10.60;99.90
4451;DHT22;2238;50.180;9.230;2022-11-15T06:33:04;10.80;99.90
4451;DHT22;2238;50.180;9.230;2022-11-15T06:36:10;10.60;99.90
4451;DHT22;2238;50.180;9.230;2022-11-15T06:39:13;10.50;99.90
4451;DHT22;2238;50.180;9.230;2022-11-15T06:42:14;10.40;99.90
4451;DHT22;2238;50.180;9.230;2022-11-15T06:45:14;10.40;99.90
4451;DHT22;2238;50.180;9.230;2022-11-15T06:48:15;10.40;99.90
4451;DHT22;2238;50.180;9.230;2022-11-15T06:51:16;10.30;99.90
4451;DHT22;2238;50.180;9.230;2022-11-15T06:54:16;10.30;99.90
4451;DHT22;2238;50.180;9.230;2022-11-15T06:57:17;10.10;99.90
4451;DHT22;2238;50.180;9.230;2022-11-15T07:00:19;10.30;99.90
4451;DHT22;2238;50.180;9.230;2022-11-15T07:03:20;10.30;99.90
4451;DHT22;2238;50.180;9.230;2022-11-15T07:06:21;10.20;99.90
4451;DHT22;2238;50.180;9.230;2022-11-15T07:09:21;10.10;99.90
4451;DHT22;2238;50.180;9.230;2022-11-15T07:12:22;10.20;99.90
4451;DHT22;2238;50.180;9.230;2022-11-15T07:15:25;10.20;99.90
4451;DHT22;2238;50.180;9.230;2022-11-15T07:18:26;10.20;99.90
4451;DHT22;2238;50.180;9.230;2022-11-15T07:21:27;10.20;99.90
4451;DHT22;2238;50.180;9.230;2022-11-15T07:24:28;10.10;99.90
4451;DHT22;2238;50.180;9.230;2022-11-15T07:27:28;10.10;99.90
4451;DHT22;2238;50.180;9.230;2022-11-15T07:30:29;10.10;99.90
4451;DHT22;2238;50.180;9.230;2022-11-15T07:33:30;10.10;99.90
4451;DHT22;2238;50.180;9.230;2022-11-15T07:36:31;10.00;99.90
4451;DHT22;2238;50.180;9.230;2022-11-15T07:39:31;10.00;99.90
4451;DHT22;2238;50.180;9.230;2022-11-15T07:42:32;10.20;99.90
4451;DHT22;2238;50.180;9.230;2022-11-15T07:46:08;10.20;99.90
4451;DHT22;2238;50.180;9.230;2022-11-15T07:49:09;10.10;99.90
4451;DHT22;2238;50.180;9.230;2022-11-15T07:52:10;10.10;99.90
4451;DHT22;2238;50.180;9.230;2022-11-15T07:55:11;10.20;99.90
4451;DHT22;2238;50.180;9.230;2022-11-15T07:58:12;10.30;99.90
4451;DHT22;2238;50.180;9.230;2022-11-15T08:01:12;10.30;99.90
4451;DHT22;2238;50.180;9.230;2022-11-15T08:04:13;10.40;99.90
4451;DHT22;2238;50.180;9.230;2022-11-15T08:07:14;10.60;99.90
4451;DHT22;2238;50.180;9.230;2022-11-15T08:10:14;10.50;99.90
4451;DHT22;2238;50.180;9.230;2022-11-15T08:13:19;10.70;99.90
4451;DHT22;2238;50.180;9.230;2022-11-15T08:16:20;10.70;99.90
4451;DHT22;2238;50.180;9.230;2022-11-15T08:19:20;11.70;99.90
4451;DHT22;2238;50.180;9.230;2022-11-15T08:22:21;11.10;99.90
4451;DHT22;2238;50.180;9.230;2022-11-15T08:25:22;11.40;99.90
4451;DHT22;2238;50.180;9.230;2022-11-15T08:28:23;11.70;99.90
4451;DHT22;2238;50.180;9.230;2022-11-15T08:31:23;11.90;99.90
4451;DHT22;2238;50.180;9.230;2022-11-15T08:34:24;12.20;99.90
4451;DHT22;2238;50.180;9.230;2022-11-15T08:37:24;12.70;99.90
4451;DHT22;2238;50.180;9.230;2022-11-15T08:40:25;13.00;99.90
4451;DHT22;2238;50.180;9.230;2022-11-15T08:43:27;13.10;99.90
4451;DHT22;2238;50.180;9.230;2022-11-15T08:46:27;14.00;99.90
4451;DHT22;2238;50.180;9.230;2022-11-15T08:49:28;14.10;99.90
4451;DHT22;2238;50.180;9.230;2022-11-15T08:52:29;13.00;99.90
4451;DHT22;2238;50.180;9.230;2022-11-15T08:55:29;14.70;99.90
4451;DHT22;2238;50.180;9.230;2022-11-15T08:58:30;13.60;99.90
4451;DHT22;2238;50.180;9.230;2022-11-15T09:01:31;16.40;99.90
4451;DHT22;2238;50.180;9.230;2022-11-15T09:04:32;14.30;99.90
4451;DHT22;2238;50.180;9.230;2022-11-15T09:07:33;15.40;99.90
4451;DHT22;2238;50.180;9.230;2022-11-15T09:10:33;15.40;99.90
4451;DHT22;2238;50.180;9.230;2022-11-15T09:13:35;14.40;99.90
4451;DHT22;2238;50.180;9.230;2022-11-15T09:16:37;14.40;99.90
4451;DHT22;2238;50.180;9.230;2022-11-15T09:19:38;14.70;99.90
4451;DHT22;2238;50.180;9.230;2022-11-15T09:22:38;15.20;99.90
4451;DHT22;2238;50.180;9.230;2022-11-15T09:25:39;15.40;99.90
4451;DHT22;2238;50.180;9.230;2022-11-15T09:28:40;16.50;99.90
4451;DHT22;2238;50.180;9.230;2022-11-15T09:31:42;15.50;99.90
4451;DHT22;2238;50.180;9.230;2022-11-15T09:34:43;15.50;99.90
4451;DHT22;2238;50.180;9.230;2022-11-15T09:37:43;15.00;99.90
4451;DHT22;2238;50.180;9.230;2022-11-15T09:40:47;15.60;99.90
4451;DHT22;2238;50.180;9.230;2022-11-15T09:47:37;14.90;99.90
4451;DHT22;2238;50.180;9.230;2022-11-15T09:50:45;14.90;99.90
4451;DHT22;2238;50.180;9.230;2022-11-15T09:53:51;16.10;99.90
4451;DHT22;2238;50.180;9.230;2022-11-15T09:57:05;15.00;99.90
4451;DHT22;2238;50.180;9.230;2022-11-15T10:03:12;14.70;99.90
4451;DHT22;2238;50.180;9.230;2022-11-15T10:06:33;14.80;99.90
4451;DHT22;2238;50.180;9.230;2022-11-15T10:10:23;14.80;99.90
4451;DHT22;2238;50.180;9.230;2022-11-15T10:13:03;14.70;99.90
4451;DHT22;2238;50.180;9.230;2022-11-15T10:23:00;14.40;99.90
4451;DHT22;2238;50.180;9.230;2022-11-15T10:26:04;14.80;99.90
4451;DHT22;2238;50.180;9.230;2022-11-15T10:29:08;15.80;99.90
4451;DHT22;2238;50.180;9.230;2022-11-15T10:53:25;15.30;99.90
4451;DHT22;2238;50.180;9.230;2022-11-15T10:56:27;15.00;99.90
4451;DHT22;2238;50.180;9.230;2022-11-15T10:59:30;15.00;99.90
4451;DHT22;2238;50.180;9.230;2022-11-15T11:02:41;15.80;99.90
4451;DHT22;2238;50.180;9.230;2022-11-15T11:05:44;15.20;99.90
4451;DHT22;2238;50.180;9.230;2022-11-15T11:09:04;16.30;99.90
4451;DHT22;2238;50.180;9.230;2022-11-15T11:12:09;14.80;99.90
4451;DHT22;2238;50.180;9.230;2022-11-15T11:15:17;15.00;99.90
4451;DHT22;2238;50.180;9.230;2022-11-15T11:18:25;15.60;99.90
4451;DHT22;2238;50.180;9.230;2022-11-15T11:22:13;15.80;99.90
4451;DHT22;2238;50.180;9.230;2022-11-15T11:35:45;14.80;99.90
4451;DHT22;2238;50.180;9.230;2022-11-15T11:39:49;14.80;99.90
4451;DHT22;2238;50.180;9.230;2022-11-15T11:49:04;14.70;99.90
4451;DHT22;2238;50.180;9.230;2022-11-15T11:55:57;14.90;99.90
4451;DHT22;2238;50.180;9.230;2022-11-15T12:02:28;15.50;99.90
4451;DHT22;2238;50.180;9.230;2022-11-15T12:05:50;16.10;99.90
4451;DHT22;2238;50.180;9.230;2022-11-15T12:09:11;14.60;99.90
4451;DHT22;2238;50.180;9.230;2022-11-15T12:12:24;16.00;99.90
4451;DHT22;2238;50.180;9.230;2022-11-15T12:15:29;16.30;99.90
4451;DHT22;2238;50.180;9.230;2022-11-15T12:18:31;15.40;99.90
4451;DHT22;2238;50.180;9.230;2022-11-15T12:21:54;14.50;99.90
4451;DHT22;2238;50.180;9.230;2022-11-15T12:25:22;14.60;99.90
4451;DHT22;2238;50.180;9.230;2022-11-15T12:34:40;15.60;99.90
4451;DHT22;2238;50.180;9.230;2022-11-15T12:41:13;16.40;99.90
4451;DHT22;2238;50.180;9.230;2022-11-15T12:47:34;14.60;99.90
4451;DHT22;2238;50.180;9.230;2022-11-15T12:53:51;15.70;99.90
4451;DHT22;2238;50.180;9.230;2022-11-15T13:03:20;14.80;99.90
4451;DHT22;2238;50.180;9.230;2022-11-15T13:06:59;14.70;99.90
4451;DHT22;2238;50.180;9.230;2022-11-15T13:10:01;14.70;99.90
4451;DHT22;2238;50.180;9.230;2022-11-15T13:13:09;14.70;99.90
4451;DHT22;2238;50.180;9.230;2022-11-15T13:16:09;14.60;99.90
4451;DHT22;2238;50.180;9.230;2022-11-15T13:19:11;14.50;99.90
4451;DHT22;2238;50.180;9.230;2022-11-15T13:22:11;14.50;99.90
4451;DHT22;2238;50.180;9.230;2022-11-15T13:28:48;14.30;99.90
4451;DHT22;2238;50.180;9.230;2022-11-15T13:31:51;15.30;99.90
4451;DHT22;2238;50.180;9.230;2022-11-15T13:34:52;14.60;99.90
4451;DHT22;2238;50.180;9.230;2022-11-15T13:37:54;14.40;99.90
4451;DHT22;2238;50.180;9.230;2022-11-15T13:40:56;14.50;99.90
4451;DHT22;2238;50.180;9.230;2022-11-15T13:43:59;14.50;99.90
4451;DHT22;2238;50.180;9.230;2022-11-15T13:47:13;14.50;99.90
4451;DHT22;2238;50.180;9.230;2022-11-15T13:50:29;14.50;99.90
4451;DHT22;2238;50.180;9.230;2022-11-15T13:53:33;14.70;99.90
4451;DHT22;2238;50.180;9.230;2022-11-15T13:56:35;14.80;99.90
4451;DHT22;2238;50.180;9.230;2022-11-15T13:59:45;14.60;99.90
4451;DHT22;2238;50.180;9.230;2022-11-15T14:02:46;14.60;99.90
4451;DHT22;2238;50.180;9.230;2022-11-15T14:06:03;14.60;99.90
4451;DHT22;2238;50.180;9.230;2022-11-15T14:12:49;14.50;99.90
4451;DHT22;2238;50.180;9.230;2022-11-15T14:15:50;16.00;99.90
4451;DHT22;2238;50.180;9.230;2022-11-15T14:18:53;14.20;99.90
4451;DHT22;2238;50.180;9.230;2022-11-15T14:22:19;14.20;99.90
4451;DHT22;2238;50.180;9.230;2022-11-15T14:25:23;14.10;99.90
4451;DHT22;2238;50.180;9.230;2022-11-15T14:31:25;14.00;99.90
4451;DHT22;2238;50.180;9.230;2022-11-15T14:34:26;14.10;99.90
4451;DHT22;2238;50.180;9.230;2022-11-15T14:37:27;16.10;99.90
4451;DHT22;2238;50.180;9.230;2022-11-15T14:40:29;13.80;99.90
4451;DHT22;2238;50.180;9.230;2022-11-15T14:43:30;13.70;99.90
4451;DHT22;2238;50.180;9.230;2022-11-15T14:46:30;13.70;99.90
4451;DHT22;2238;50.180;9.230;2022-11-15T14:49:31;14.70;99.90
4451;DHT22;2238;50.180;9.230;2022-11-15T14:52:32;14.60;99.90
4451;DHT22;2238;50.180;9.230;2022-11-15T14:55:36;13.50;99.90
4451;DHT22;2238;50.180;9.230;2022-11-15T14:58:37;13.50;99.90
4451;DHT22;2238;50.180;9.230;2022-11-15T15:01:37;13.40;99.90
4451;DHT22;2238;50.180;9.230;2022-11-15T15:04:38;13.30;99.90
4451;DHT22;2238;50.180;9.230;2022-11-15T15:07:38;13.20;99.90
4451;DHT22;2238;50.180;9.230;2022-11-15T15:10:42;13.20;99.90
4451;DHT22;2238;50.180;9.230;2022-11-15T15:13:43;13.10;99.90
4451;DHT22;2238;50.180;9.230;2022-11-15T15:16:43;13.10;99.90
4451;DHT22;2238;50.180;9.230;2022-11-15T15:19:44;12.90;99.90
4451;DHT22;2238;50.180;9.230;2022-11-15T15:22:45;12.90;99.90
4451;DHT22;2238;50.180;9.230;2022-11-15T15:25:46;13.10;99.90
4451;DHT22;2238;50.180;9.230;2022-11-15T15:28:49;13.00;99.90
4451;DHT22;2238;50.180;9.230;2022-11-15T15:31:51;13.10;99.90
4451;DHT22;2238;50.180;9.230;2022-11-15T15:34:52;13.10;99.90
4451;DHT22;2238;50.180;9.230;2022-11-15T15:37:52;12.90;99.90
4451;DHT22;2238;50.180;9.230;2022-11-15T15:40:54;12.90;99.90
4451;DHT22;2238;50.180;9.230;2022-11-15T15:43:55;12.80;99.90
4451;DHT22;2238;50.180;9.230;2022-11-15T15:46:56;12.70;99.90
4451;DHT22;2238;50.180;9.230;2022-11-15T15:49:58;12.60;99.90
4451;DHT22;2238;50.180;9.230;2022-11-15T15:53:00;12.60;99.90
4451;DHT22;2238;50.180;9.230;2022-11-15T15:56:02;12.60;99.90
4451;DHT22;2238;50.180;9.230;2022-11-15T15:59:02;13.30;99.90
4451;DHT22;2238;50.180;9.230;2022-11-15T16:02:03;12.50;99.90
4451;DHT22;2238;50.180;9.230;2022-11-15T16:05:04;12.60;99.90
4451;DHT22;2238;50.180;9.230;2022-11-15T16:08:20;12.50;99.90
4451;DHT22;2238;50.180;9.230;2022-11-15T16:11:21;12.50;99.90
4451;DHT22;2238;50.180;9.230;2022-11-15T16:14:21;12.40;99.90
4451;DHT22;2238;50.180;9.230;2022-11-15T16:17:24;12.40;99.90
4451;DHT22;2238;50.180;9.230;2022-11-15T16:23:28;13.70;99.90
4451;DHT22;2238;50.180;9.230;2022-11-15T16:26:29;12.30;99.90
4451;DHT22;2238;50.180;9.230;2022-11-15T16:29:30;12.40;99.90
4451;DHT22;2238;50.180;9.230;2022-11-15T16:32:30;12.30;99.90
4451;DHT22;2238;50.180;9.230;2022-11-15T16:35:31;12.30;99.90
4451;DHT22;2238;50.180;9.230;2022-11-15T16:38:32;12.30;99.90
4451;DHT22;2238;50.180;9.230;2022-11-15T16:41:33;12.30;99.90
4451;DHT22;2238;50.180;9.230;2022-11-15T16:44:33;12.30;99.90
4451;DHT22;2238;50.180;9.230;2022-11-15T16:47:34;12.20;99.90
4451;DHT22;2238;50.180;9.230;2022-11-15T16:50:34;12.60;99.90
4451;DHT22;2238;50.180;9.230;2022-11-15T16:53:42;13.90;99.90
4451;DHT22;2238;50.180;9.230;2022-11-15T16:56:43;12.10;99.90
4451;DHT22;2238;50.180;9.230;2022-11-15T16:59:44;12.10;99.90
4451;DHT22;2238;50.180;9.230;2022-11-15T17:02:46;12.10;99.90
4451;DHT22;2238;50.180;9.230;2022-11-15T17:05:47;12.20;99.90
4451;DHT22;2238;50.180;9.230;2022-11-15T17:08:48;12.20;99.90
4451;DHT22;2238;50.180;9.230;2022-11-15T17:11:49;12.20;99.90
4451;DHT22;2238;50.180;9.230;2022-11-15T17:14:49;12.20;99.90
4451;DHT22;2238;50.180;9.230;2022-11-15T17:17:54;12.20;99.90
4451;DHT22;2238;50.180;9.230;2022-11-15T17:20:54;12.10;99.90
4451;DHT22;2238;50.180;9.230;2022-11-15T17:23:55;12.00;99.90
4451;DHT22;2238;50.180;9.230;2022-11-15T17:26:56;12.00;99.90
4451;DHT22;2238;50.180;9.230;2022-11-15T17:29:56;12.20;99.90
4451;DHT22;2238;50.180;9.230;2022-11-15T17:32:57;11.90;99.90
4451;DHT22;2238;50.180;9.230;2022-11-15T17:35:59;11.90;99.90
4451;DHT22;2238;50.180;9.230;2022-11-15T17:39:00;11.90;99.90
4451;DHT22;2238;50.180;9.230;2022-11-15T17:42:01;12.00;99.90
4451;DHT22;2238;50.180;9.230;2022-11-15T17:45:01;12.10;99.90
4451;DHT22;2238;50.180;9.230;2022-11-15T17:48:02;12.10;99.90
4451;DHT22;2238;50.180;9.230;2022-11-15T17:51:05;12.10;99.90
4451;DHT22;2238;50.180;9.230;2022-11-15T17:54:09;12.20;99.90
4451;DHT22;2238;50.180;9.230;2022-11-15T17:57:10;12.30;99.90
4451;DHT22;2238;50.180;9.230;2022-11-15T18:00:11;12.20;99.90
4451;DHT22;2238;50.180;9.230;2022-11-15T18:03:12;12.20;99.90
4451;DHT22;2238;50.180;9.230;2022-11-15T18:06:13;12.10;99.90
4451;DHT22;2238;50.180;9.230;2022-11-15T18:09:14;12.10;99.90
4451;DHT22;2238;50.180;9.230;2022-11-15T18:12:15;11.90;99.90
4451;DHT22;2238;50.180;9.230;2022-11-15T18:15:16;11.90;99.90
4451;DHT22;2238;50.180;9.230;2022-11-15T18:18:18;12.20;99.90
4451;DHT22;2238;50.180;9.230;2022-11-15T18:21:24;12.10;99.90
4451;DHT22;2238;50.180;9.230;2022-11-15T18:24:33;12.00;99.90
4451;DHT22;2238;50.180;9.230;2022-11-15T18:27:42;12.00;99.90
4451;DHT22;2238;50.180;9.230;2022-11-15T18:30:42;12.00;99.90
4451;DHT22;2238;50.180;9.230;2022-11-15T18:33:44;11.90;99.90
4451;DHT22;2238;50.180;9.230;2022-11-15T18:36:44;12.10;99.90
4451;DHT22;2238;50.180;9.230;2022-11-15T18:39:45;12.10;99.90
4451;DHT22;2238;50.180;9.230;2022-11-15T18:42:46;11.90;99.90
4451;DHT22;2238;50.180;9.230;2022-11-15T18:45:47;12.00;99.90
4451;DHT22;2238;50.180;9.230;2022-11-15T18:48:49;12.00;99.90
4451;DHT22;2238;50.180;9.230;2022-11-15T18:51:50;12.00;99.90
4451;DHT22;2238;50.180;9.230;2022-11-15T18:54:51;11.90;99.90
4451;DHT22;2238;50.180;9.230;2022-11-15T18:57:51;12.10;99.90
4451;DHT22;2238;50.180;9.230;2022-11-15T19:00:59;12.00;99.90
4451;DHT22;2238;50.180;9.230;2022-11-15T19:04:09;12.10;99.90
4451;DHT22;2238;50.180;9.230;2022-11-15T19:07:10;12.10;99.90
4451;DHT22;2238;50.180;9.230;2022-11-15T19:10:11;12.20;99.90
4451;DHT22;2238;50.180;9.230;2022-11-15T19:13:11;12.20;99.90
4451;DHT22;2238;50.180;9.230;2022-11-15T19:16:14;12.30;99.90
4451;DHT22;2238;50.180;9.230;2022-11-15T19:19:20;12.20;99.90
4451;DHT22;2238;50.180;9.230;2022-11-15T19:22:21;12.10;99.90
4451;DHT22;2238;50.180;9.230;2022-11-15T19:25:21;12.20;99.90
4451;DHT22;2238;50.180;9.230;2022-11-15T19:28:28;12.20;99.90
4451;DHT22;2238;50.180;9.230;2022-11-15T19:31:30;12.20;99.90
4451;DHT22;2238;50.180;9.230;2022-11-15T19:34:31;12.30;99.90
4451;DHT22;2238;50.180;9.230;2022-11-15T19:37:31;13.50;99.90
4451;DHT22;2238;50.180;9.230;2022-11-15T19:40:33;13.00;99.90
4451;DHT22;2238;50.180;9.230;2022-11-15T19:43:34;13.80;99.90
4451;DHT22;2238;50.180;9.230;2022-11-15T19:46:35;12.30;99.90
4451;DHT22;2238;50.180;9.230;2022-11-15T19:49:36;12.30;99.90
4451;DHT22;2238;50.180;9.230;2022-11-15T19:52:37;12.40;99.90
4451;DHT22;2238;50.180;9.230;2022-11-15T19:55:38;12.40;99.90
4451;DHT22;2238;50.180;9.230;2022-11-15T19:58:39;12.40;99.90
4451;DHT22;2238;50.180;9.230;2022-11-15T20:01:40;12.50;99.90
4451;DHT22;2238;50.180;9.230;2022-11-15T20:04:41;12.40;99.90
4451;DHT22;2238;50.180;9.230;2022-11-15T20:07:41;12.40;99.90
4451;DHT22;2238;50.180;9.230;2022-11-15T20:10:43;12.40;99.90
4451;DHT22;2238;50.180;9.230;2022-11-15T20:13:45;12.40;99.90
4451;DHT22;2238;50.180;9.230;2022-11-15T20:16:46;12.40;99.90
4451;DHT22;2238;50.180;9.230;2022-11-15T20:19:46;12.40;99.90
4451;DHT22;2238;50.180;9.230;2022-11-15T20:22:47;12.40;99.90
4451;DHT22;2238;50.180;9.230;2022-11-15T20:25:48;12.40;99.90
4451;DHT22;2238;50.180;9.230;2022-11-15T20:28:48;12.50;99.90
4451;DHT22;2238;50.180;9.230;2022-11-15T20:31:49;12.50;99.90
4451;DHT22;2238;50.180;9.230;2022-11-15T20:34:50;12.50;99.90
4451;DHT22;2238;50.180;9.230;2022-11-15T20:37:50;12.50;99.90
4451;DHT22;2238;50.180;9.230;2022-11-15T20:40:51;12.50;99.90
4451;DHT22;2238;50.180;9.230;2022-11-15T20:43:51;12.60;99.90
4451;DHT22;2238;50.180;9.230;2022-11-15T20:46:52;13.60;99.90
4451;DHT22;2238;50.180;9.230;2022-11-15T20:49:52;12.50;99.90
4451;DHT22;2238;50.180;9.230;2022-11-15T20:52:55;12.50;99.90
4451;DHT22;2238;50.180;9.230;2022-11-15T20:56:03;12.50;99.90
4451;DHT22;2238;50.180;9.230;2022-11-15T20:59:05;12.50;99.90
4451;DHT22;2238;50.180;9.230;2022-11-15T21:02:05;12.50;99.90
4451;DHT22;2238;50.180;9.230;2022-11-15T21:05:06;12.40;99.90
4451;DHT22;2238;50.180;9.230;2022-11-15T21:08:09;12.40;99.90
4451;DHT22;2238;50.180;9.230;2022-11-15T21:11:11;12.40;99.90
4451;DHT22;2238;50.180;9.230;2022-11-15T21:14:30;12.30;99.90
4451;DHT22;2238;50.180;9.230;2022-11-15T21:17:30;12.30;99.90
4451;DHT22;2238;50.180;9.230;2022-11-15T21:20:31;12.20;99.90
4451;DHT22;2238;50.180;9.230;2022-11-15T21:23:32;12.30;99.90
4451;DHT22;2238;50.180;9.230;2022-11-15T21:26:33;12.20;99.90
4451;DHT22;2238;50.180;9.230;2022-11-15T21:29:34;12.20;99.90
4451;DHT22;2238;50.180;9.230;2022-11-15T21:32:38;12.20;99.90
4451;DHT22;2238;50.180;9.230;2022-11-15T21:35:39;12.30;99.90
4451;DHT22;2238;50.180;9.230;2022-11-15T21:38:39;12.20;99.90
4451;DHT22;2238;50.180;9.230;2022-11-15T21:41:40;12.20;99.90
4451;DHT22;2238;50.180;9.230;2022-11-15T21:44:40;12.30;99.90
4451;DHT22;2238;50.180;9.230;2022-11-15T21:47:41;12.10;99.90
4451;DHT22;2238;50.180;9.230;2022-11-15T21:50:42;12.10;99.90
4451;DHT22;2238;50.180;9.230;2022-11-15T21:53:42;12.20;99.90
4451;DHT22;2238;50.180;9.230;2022-11-15T21:56:43;12.10;99.90
4451;DHT22;2238;50.180;9.230;2022-11-15T21:59:44;12.00;99.90
4451;DHT22;2238;50.180;9.230;2022-11-15T22:03:03;11.90;99.90